Terminal Aerodrome Forecast
Issued by NWS

Home | Current Version | Previous Version | Text Only | Print | Product List | Glossary On
Versions: 1 2 3 4 5 6 7 8 9 10 11 12 13 14 15 16 17 18 19 20 21 22
000
FTUS41 KPBZ 300800 AAA
TAFFKL
TAF AMD
KFKL 300811Z 3008/3106 21012G22KT P6SM SCT005 BKN008
      TEMPO 3008/3010 4SM BR BKN005
     FM301000 25010G18KT P6SM BKN015
     FM301300 27012KT P6SM BKN025
     FM301600 27012G22KT P6SM BKN035
     FM310000 25006KT P6SM BKN050
      AMD LTD TO CLD VIS AND WIND=

USA.gov is the U.S. government's official web portal to all federal, state and local government web resources and services.